sensor_id;sensor_type;location;lat;lon;timestamp;pressure;altitude;pressure_sealevel;temperature;humidity
8286;BME280;4181;43.416;24.598;2022-09-21T00:01:07;100262.41;;;13.63;100.00
8286;BME280;4181;43.416;24.598;2022-09-21T00:03:33;100258.84;;;13.62;100.00
8286;BME280;4181;43.416;24.598;2022-09-21T00:06:07;100263.19;;;13.53;100.00
8286;BME280;4181;43.416;24.598;2022-09-21T00:08:33;100252.75;;;13.50;100.00
8286;BME280;4181;43.416;24.598;2022-09-21T00:10:59;100247.22;;;13.40;100.00
8286;BME280;4181;43.416;24.598;2022-09-21T00:13:25;100235.09;;;13.26;100.00
8286;BME280;4181;43.416;24.598;2022-09-21T00:15:52;100258.03;;;13.15;100.00
8286;BME280;4181;43.416;24.598;2022-09-21T00:18:18;100243.25;;;13.11;100.00
8286;BME280;4181;43.416;24.598;2022-09-21T00:20:43;100240.22;;;13.08;100.00
8286;BME280;4181;43.416;24.598;2022-09-21T00:23:09;100252.00;;;13.08;100.00
8286;BME280;4181;43.416;24.598;2022-09-21T00:25:35;100245.06;;;13.01;100.00
8286;BME280;4181;43.416;24.598;2022-09-21T00:28:01;100243.53;;;13.15;100.00
8286;BME280;4181;43.416;24.598;2022-09-21T00:30:27;100232.69;;;12.93;100.00
8286;BME280;4181;43.416;24.598;2022-09-21T00:32:54;100236.63;;;13.07;100.00
8286;BME280;4181;43.416;24.598;2022-09-21T00:35:40;100251.50;;;13.16;100.00
8286;BME280;4181;43.416;24.598;2022-09-21T00:38:06;100229.00;;;13.14;100.00
8286;BME280;4181;43.416;24.598;2022-09-21T00:40:32;100248.03;;;13.36;100.00
8286;BME280;4181;43.416;24.598;2022-09-21T00:43:24;100227.50;;;13.38;100.00
8286;BME280;4181;43.416;24.598;2022-09-21T00:46:00;100228.56;;;13.37;100.00
8286;BME280;4181;43.416;24.598;2022-09-21T00:48:35;100223.41;;;13.46;100.00
8286;BME280;4181;43.416;24.598;2022-09-21T00:51:05;100239.66;;;13.62;100.00
8286;BME280;4181;43.416;24.598;2022-09-21T00:53:34;100238.56;;;13.58;100.00
8286;BME280;4181;43.416;24.598;2022-09-21T00:56:03;100232.28;;;13.68;100.00
8286;BME280;4181;43.416;24.598;2022-09-21T00:58:52;100232.56;;;13.71;100.00
8286;BME280;4181;43.416;24.598;2022-09-21T01:01:18;100211.66;;;13.60;100.00
8286;BME280;4181;43.416;24.598;2022-09-21T01:03:45;100222.69;;;13.80;100.00
8286;BME280;4181;43.416;24.598;2022-09-21T01:06:17;100212.00;;;13.79;100.00
8286;BME280;4181;43.416;24.598;2022-09-21T01:08:45;100223.53;;;13.86;100.00
8286;BME280;4181;43.416;24.598;2022-09-21T01:11:27;100233.69;;;13.90;100.00
8286;BME280;4181;43.416;24.598;2022-09-21T01:16:46;100234.81;;;13.89;100.00
8286;BME280;4181;43.416;24.598;2022-09-21T01:21:59;100227.69;;;13.88;100.00
8286;BME280;4181;43.416;24.598;2022-09-21T01:24:40;100220.50;;;13.82;100.00
8286;BME280;4181;43.416;24.598;2022-09-21T01:30:02;100223.22;;;13.67;100.00
8286;BME280;4181;43.416;24.598;2022-09-21T01:32:36;100221.59;;;13.76;100.00
8286;BME280;4181;43.416;24.598;2022-09-21T01:35:11;100210.06;;;13.74;100.00
8286;BME280;4181;43.416;24.598;2022-09-21T01:38:12;100212.28;;;13.82;100.00
8286;BME280;4181;43.416;24.598;2022-09-21T01:40:50;100213.97;;;13.88;100.00
8286;BME280;4181;43.416;24.598;2022-09-21T01:43:22;100213.69;;;13.90;100.00
8286;BME280;4181;43.416;24.598;2022-09-21T01:45:53;100195.53;;;13.69;100.00
8286;BME280;4181;43.416;24.598;2022-09-21T01:48:23;100212.53;;;13.76;100.00
8286;BME280;4181;43.416;24.598;2022-09-21T01:50:54;100205.13;;;13.71;100.00
8286;BME280;4181;43.416;24.598;2022-09-21T01:53:52;100206.75;;;13.67;100.00
8286;BME280;4181;43.416;24.598;2022-09-21T01:56:41;100209.22;;;13.64;100.00
8286;BME280;4181;43.416;24.598;2022-09-21T02:01:46;100193.84;;;13.58;100.00
8286;BME280;4181;43.416;24.598;2022-09-21T02:04:41;100225.13;;;13.67;100.00
8286;BME280;4181;43.416;24.598;2022-09-21T02:07:15;100201.81;;;13.59;100.00
8286;BME280;4181;43.416;24.598;2022-09-21T02:09:41;100228.97;;;13.71;100.00
8286;BME280;4181;43.416;24.598;2022-09-21T02:12:08;100207.78;;;13.41;100.00
8286;BME280;4181;43.416;24.598;2022-09-21T02:14:36;100214.91;;;13.47;100.00
8286;BME280;4181;43.416;24.598;2022-09-21T02:20:19;100224.88;;;13.63;100.00
8286;BME280;4181;43.416;24.598;2022-09-21T02:26:28;100213.06;;;13.68;100.00
8286;BME280;4181;43.416;24.598;2022-09-21T02:29:00;100221.59;;;13.71;100.00
8286;BME280;4181;43.416;24.598;2022-09-21T02:34:23;100202.63;;;13.60;100.00
8286;BME280;4181;43.416;24.598;2022-09-21T02:37:16;100208.41;;;13.58;100.00
8286;BME280;4181;43.416;24.598;2022-09-21T02:39:58;100216.06;;;13.56;100.00
8286;BME280;4181;43.416;24.598;2022-09-21T02:42:36;100223.19;;;13.57;100.00
8286;BME280;4181;43.416;24.598;2022-09-21T02:45:24;100221.22;;;13.43;100.00
8286;BME280;4181;43.416;24.598;2022-09-21T02:48:04;100202.72;;;13.13;100.00
8286;BME280;4181;43.416;24.598;2022-09-21T02:50:39;100222.47;;;13.25;100.00
8286;BME280;4181;43.416;24.598;2022-09-21T02:53:30;100202.72;;;13.13;100.00
8286;BME280;4181;43.416;24.598;2022-09-21T02:55:59;100229.88;;;13.20;100.00
8286;BME280;4181;43.416;24.598;2022-09-21T02:58:35;100208.13;;;13.03;100.00
8286;BME280;4181;43.416;24.598;2022-09-21T03:01:04;100201.78;;;12.98;100.00
8286;BME280;4181;43.416;24.598;2022-09-21T03:03:34;100200.91;;;12.92;100.00
8286;BME280;4181;43.416;24.598;2022-09-21T03:06:02;100198.09;;;12.82;100.00
8286;BME280;4181;43.416;24.598;2022-09-21T03:08:27;100197.09;;;12.93;100.00
8286;BME280;4181;43.416;24.598;2022-09-21T03:10:54;100219.16;;;13.13;100.00
8286;BME280;4181;43.416;24.598;2022-09-21T03:13:22;100191.91;;;12.97;100.00
8286;BME280;4181;43.416;24.598;2022-09-21T03:15:57;100225.44;;;13.14;100.00
8286;BME280;4181;43.416;24.598;2022-09-21T03:18:23;100205.84;;;12.95;100.00
8286;BME280;4181;43.416;24.598;2022-09-21T03:20:48;100208.63;;;13.00;100.00
8286;BME280;4181;43.416;24.598;2022-09-21T03:23:14;100206.47;;;13.02;100.00
8286;BME280;4181;43.416;24.598;2022-09-21T03:25:43;100201.84;;;13.08;100.00
8286;BME280;4181;43.416;24.598;2022-09-21T03:28:09;100199.94;;;13.03;100.00
8286;BME280;4181;43.416;24.598;2022-09-21T03:30:35;100207.56;;;13.01;100.00
8286;BME280;4181;43.416;24.598;2022-09-21T03:33:00;100216.09;;;13.05;100.00
8286;BME280;4181;43.416;24.598;2022-09-21T03:35:33;100218.78;;;13.00;100.00
8286;BME280;4181;43.416;24.598;2022-09-21T03:38:00;100216.25;;;12.93;100.00
8286;BME280;4181;43.416;24.598;2022-09-21T03:40:26;100201.47;;;12.94;100.00
8286;BME280;4181;43.416;24.598;2022-09-21T03:42:53;100232.03;;;13.13;100.00
8286;BME280;4181;43.416;24.598;2022-09-21T03:45:19;100225.66;;;13.02;100.00
8286;BME280;4181;43.416;24.598;2022-09-21T03:47:49;100232.81;;;13.08;100.00
8286;BME280;4181;43.416;24.598;2022-09-21T03:50:14;100227.38;;;13.13;100.00
8286;BME280;4181;43.416;24.598;2022-09-21T03:52:40;100228.13;;;13.04;100.00
8286;BME280;4181;43.416;24.598;2022-09-21T03:55:08;100232.84;;;13.13;100.00
8286;BME280;4181;43.416;24.598;2022-09-21T03:57:37;100233.44;;;13.25;100.00
8286;BME280;4181;43.416;24.598;2022-09-21T04:00:05;100215.69;;;13.33;100.00
8286;BME280;4181;43.416;24.598;2022-09-21T04:02:31;100227.44;;;13.28;100.00
8286;BME280;4181;43.416;24.598;2022-09-21T04:04:57;100231.25;;;13.27;100.00
8286;BME280;4181;43.416;24.598;2022-09-21T04:07:23;100242.28;;;13.37;100.00
8286;BME280;4181;43.416;24.598;2022-09-21T04:09:48;100242.84;;;13.39;100.00
8286;BME280;4181;43.416;24.598;2022-09-21T04:12:14;100245.81;;;13.33;100.00
8286;BME280;4181;43.416;24.598;2022-09-21T04:14:39;100249.16;;;13.40;100.00
8286;BME280;4181;43.416;24.598;2022-09-21T04:17:04;100245.66;;;13.59;100.00
8286;BME280;4181;43.416;24.598;2022-09-21T04:19:30;100243.03;;;13.89;100.00
8286;BME280;4181;43.416;24.598;2022-09-21T04:21:55;100232.06;;;13.94;100.00
8286;BME280;4181;43.416;24.598;2022-09-21T04:24:21;100242.03;;;14.26;100.00
8286;BME280;4181;43.416;24.598;2022-09-21T04:26:47;100244.50;;;14.42;100.00
8286;BME280;4181;43.416;24.598;2022-09-21T04:29:13;100243.16;;;14.50;100.00
8286;BME280;4181;43.416;24.598;2022-09-21T04:31:40;100251.94;;;14.62;100.00
8286;BME280;4181;43.416;24.598;2022-09-21T04:34:06;100251.94;;;14.82;100.00
8286;BME280;4181;43.416;24.598;2022-09-21T04:36:31;100257.41;;;15.02;100.00
8286;BME280;4181;43.416;24.598;2022-09-21T04:38:59;100246.59;;;15.31;100.00
8286;BME280;4181;43.416;24.598;2022-09-21T04:41:26;100254.03;;;15.45;100.00
8286;BME280;4181;43.416;24.598;2022-09-21T04:43:55;100248.44;;;15.65;100.00
8286;BME280;4181;43.416;24.598;2022-09-21T04:46:20;100237.59;;;15.89;100.00
8286;BME280;4181;43.416;24.598;2022-09-21T04:48:48;100243.06;;;15.99;100.00
8286;BME280;4181;43.416;24.598;2022-09-21T04:51:15;100237.47;;;16.09;100.00
8286;BME280;4181;43.416;24.598;2022-09-21T04:53:50;100238.25;;;16.14;100.00
8286;BME280;4181;43.416;24.598;2022-09-21T04:56:16;100228.44;;;16.47;100.00
8286;BME280;4181;43.416;24.598;2022-09-21T04:58:42;100211.97;;;16.71;100.00
8286;BME280;4181;43.416;24.598;2022-09-21T05:01:09;100237.09;;;16.93;100.00
8286;BME280;4181;43.416;24.598;2022-09-21T05:03:35;100236.75;;;16.99;100.00
8286;BME280;4181;43.416;24.598;2022-09-21T05:06:04;100212.56;;;17.20;100.00
8286;BME280;4181;43.416;24.598;2022-09-21T05:08:35;100223.97;;;17.37;100.00
8286;BME280;4181;43.416;24.598;2022-09-21T05:11:19;100226.06;;;17.45;100.00
8286;BME280;4181;43.416;24.598;2022-09-21T05:13:46;100241.53;;;17.46;100.00
8286;BME280;4181;43.416;24.598;2022-09-21T05:16:12;100233.22;;;17.69;100.00
8286;BME280;4181;43.416;24.598;2022-09-21T05:18:38;100218.94;;;17.86;100.00
8286;BME280;4181;43.416;24.598;2022-09-21T05:21:04;100218.88;;;18.10;100.00
8286;BME280;4181;43.416;24.598;2022-09-21T05:23:30;100223.47;;;18.14;100.00
8286;BME280;4181;43.416;24.598;2022-09-21T05:25:57;100220.06;;;18.22;100.00
8286;BME280;4181;43.416;24.598;2022-09-21T05:28:23;100239.25;;;18.32;100.00
8286;BME280;4181;43.416;24.598;2022-09-21T05:37:00;100221.50;;;19.03;100.00
8286;BME280;4181;43.416;24.598;2022-09-21T05:39:27;100228.25;;;19.10;100.00
8286;BME280;4181;43.416;24.598;2022-09-21T05:41:53;100220.09;;;19.19;100.00
8286;BME280;4181;43.416;24.598;2022-09-21T05:44:21;100226.19;;;19.34;100.00
8286;BME280;4181;43.416;24.598;2022-09-21T05:49:52;100222.19;;;19.67;100.00
8286;BME280;4181;43.416;24.598;2022-09-21T05:52:40;100215.19;;;19.70;100.00
8286;BME280;4181;43.416;24.598;2022-09-21T05:55:35;100219.72;;;19.66;100.00
8286;BME280;4181;43.416;24.598;2022-09-21T06:03:44;100210.00;;;20.04;100.00
8286;BME280;4181;43.416;24.598;2022-09-21T06:06:12;100219.16;;;19.91;100.00
8286;BME280;4181;43.416;24.598;2022-09-21T06:08:38;100214.09;;;20.20;100.00
8286;BME280;4181;43.416;24.598;2022-09-21T06:11:04;100210.69;;;20.23;100.00
8286;BME280;4181;43.416;24.598;2022-09-21T06:13:29;100214.00;;;20.47;100.00
8286;BME280;4181;43.416;24.598;2022-09-21T06:15:55;100204.59;;;20.79;100.00
8286;BME280;4181;43.416;24.598;2022-09-21T06:18:21;100188.06;;;20.96;100.00
8286;BME280;4181;43.416;24.598;2022-09-21T06:20:46;100204.97;;;21.16;100.00
8286;BME280;4181;43.416;24.598;2022-09-21T06:23:13;100210.09;;;21.31;100.00
8286;BME280;4181;43.416;24.598;2022-09-21T06:25:38;100196.88;;;21.28;100.00
8286;BME280;4181;43.416;24.598;2022-09-21T06:28:05;100194.28;;;21.32;100.00
8286;BME280;4181;43.416;24.598;2022-09-21T06:30:32;100207.88;;;21.42;100.00
8286;BME280;4181;43.416;24.598;2022-09-21T06:33:03;100216.53;;;21.41;100.00
8286;BME280;4181;43.416;24.598;2022-09-21T06:35:30;100216.09;;;21.56;100.00
8286;BME280;4181;43.416;24.598;2022-09-21T06:38:06;100218.03;;;21.55;100.00
8286;BME280;4181;43.416;24.598;2022-09-21T06:40:34;100210.31;;;21.83;100.00
8286;BME280;4181;43.416;24.598;2022-09-21T06:43:01;100195.66;;;22.16;100.00
8286;BME280;4181;43.416;24.598;2022-09-21T06:45:28;100191.22;;;22.15;100.00
8286;BME280;4181;43.416;24.598;2022-09-21T06:47:54;100196.63;;;22.12;100.00
8286;BME280;4181;43.416;24.598;2022-09-21T06:50:20;100217.03;;;21.99;100.00
8286;BME280;4181;43.416;24.598;2022-09-21T06:52:46;100214.13;;;21.56;100.00
8286;BME280;4181;43.416;24.598;2022-09-21T06:55:12;100228.28;;;21.38;100.00
8286;BME280;4181;43.416;24.598;2022-09-21T06:57:38;100239.81;;;21.00;100.00
8286;BME280;4181;43.416;24.598;2022-09-21T07:00:06;100246.44;;;20.69;100.00
8286;BME280;4181;43.416;24.598;2022-09-21T07:02:32;100263.09;;;20.33;100.00
8286;BME280;4181;43.416;24.598;2022-09-21T07:04:58;100262.72;;;20.26;100.00
8286;BME280;4181;43.416;24.598;2022-09-21T07:07:29;100246.38;;;20.60;100.00
8286;BME280;4181;43.416;24.598;2022-09-21T07:09:55;100229.56;;;21.01;100.00
8286;BME280;4181;43.416;24.598;2022-09-21T07:12:21;100227.34;;;21.51;100.00
8286;BME280;4181;43.416;24.598;2022-09-21T07:14:47;100199.84;;;21.80;100.00
8286;BME280;4181;43.416;24.598;2022-09-21T07:17:13;100223.72;;;21.81;100.00
8286;BME280;4181;43.416;24.598;2022-09-21T07:19:39;100219.97;;;21.94;100.00
8286;BME280;4181;43.416;24.598;2022-09-21T07:22:05;100217.38;;;22.14;100.00
8286;BME280;4181;43.416;24.598;2022-09-21T07:24:31;100208.56;;;22.64;100.00
8286;BME280;4181;43.416;24.598;2022-09-21T07:26:57;100191.47;;;22.99;100.00
8286;BME280;4181;43.416;24.598;2022-09-21T07:29:22;100195.66;;;23.22;100.00
8286;BME280;4181;43.416;24.598;2022-09-21T07:31:48;100194.66;;;23.27;100.00
8286;BME280;4181;43.416;24.598;2022-09-21T07:34:13;100180.22;;;23.33;100.00
8286;BME280;4181;43.416;24.598;2022-09-21T07:36:39;100194.34;;;23.28;100.00
8286;BME280;4181;43.416;24.598;2022-09-21T07:39:05;100199.91;;;23.28;100.00
8286;BME280;4181;43.416;24.598;2022-09-21T07:41:30;100186.69;;;23.54;100.00
8286;BME280;4181;43.416;24.598;2022-09-21T07:43:56;100194.31;;;23.66;100.00
8286;BME280;4181;43.416;24.598;2022-09-21T07:46:21;100194.38;;;23.87;100.00
8286;BME280;4181;43.416;24.598;2022-09-21T07:48:47;100183.41;;;24.11;100.00
8286;BME280;4181;43.416;24.598;2022-09-21T07:51:14;100186.06;;;24.28;100.00
8286;BME280;4181;43.416;24.598;2022-09-21T07:53:42;100168.22;;;24.41;100.00
8286;BME280;4181;43.416;24.598;2022-09-21T07:56:14;100193.00;;;24.22;100.00
8286;BME280;4181;43.416;24.598;2022-09-21T07:58:40;100184.75;;;24.46;100.00
8286;BME280;4181;43.416;24.598;2022-09-21T08:01:25;100188.44;;;24.38;100.00
8286;BME280;4181;43.416;24.598;2022-09-21T08:03:53;100199.81;;;23.83;100.00
8286;BME280;4181;43.416;24.598;2022-09-21T08:06:20;100214.56;;;23.54;100.00
8286;BME280;4181;43.416;24.598;2022-09-21T08:08:46;100196.81;;;23.59;100.00
8286;BME280;4181;43.416;24.598;2022-09-21T08:11:14;100187.38;;;23.51;100.00
8286;BME280;4181;43.416;24.598;2022-09-21T08:13:40;100201.34;;;23.43;100.00
8286;BME280;4181;43.416;24.598;2022-09-21T08:16:07;100199.63;;;23.13;100.00
8286;BME280;4181;43.416;24.598;2022-09-21T08:18:36;100208.13;;;23.16;100.00
8286;BME280;4181;43.416;24.598;2022-09-21T08:21:02;100210.81;;;22.96;100.00
8286;BME280;4181;43.416;24.598;2022-09-21T08:23:28;100219.38;;;22.56;100.00
8286;BME280;4181;43.416;24.598;2022-09-21T08:26:03;100216.09;;;22.46;100.00
8286;BME280;4181;43.416;24.598;2022-09-21T08:28:30;100230.44;;;22.05;100.00
8286;BME280;4181;43.416;24.598;2022-09-21T08:31:04;100215.75;;;22.22;100.00
8286;BME280;4181;43.416;24.598;2022-09-21T08:33:30;100213.13;;;22.17;100.00
8286;BME280;4181;43.416;24.598;2022-09-21T08:35:58;100208.41;;;22.26;100.00
8286;BME280;4181;43.416;24.598;2022-09-21T08:38:24;100222.78;;;22.19;100.00
8286;BME280;4181;43.416;24.598;2022-09-21T08:40:51;100216.06;;;22.20;100.00
8286;BME280;4181;43.416;24.598;2022-09-21T08:43:37;100219.97;;;21.94;100.00
8286;BME280;4181;43.416;24.598;2022-09-21T08:46:06;100212.16;;;21.57;100.00
8286;BME280;4181;43.416;24.598;2022-09-21T08:48:42;100226.69;;;21.14;100.00
8286;BME280;4181;43.416;24.598;2022-09-21T08:51:15;100232.06;;;20.89;100.00
8286;BME280;4181;43.416;24.598;2022-09-21T08:53:44;100242.06;;;20.76;100.00
8286;BME280;4181;43.416;24.598;2022-09-21T08:56:12;100232.50;;;20.82;100.00
8286;BME280;4181;43.416;24.598;2022-09-21T08:58:38;100227.59;;;20.57;100.00
8286;BME280;4181;43.416;24.598;2022-09-21T09:07:07;100245.78;;;20.14;100.00
8286;BME280;4181;43.416;24.598;2022-09-21T09:17:47;100228.88;;;20.16;100.00
8286;BME280;4181;43.416;24.598;2022-09-21T09:20:28;100221.28;;;20.21;100.00
8286;BME280;4181;43.416;24.598;2022-09-21T09:23:22;100215.97;;;20.33;100.00
8286;BME280;4181;43.416;24.598;2022-09-21T09:26:05;100203.53;;;20.44;100.00
8286;BME280;4181;43.416;24.598;2022-09-21T09:28:49;100198.91;;;20.62;100.00
8286;BME280;4181;43.416;24.598;2022-09-21T09:31:42;100188.13;;;20.82;100.00
8286;BME280;4181;43.416;24.598;2022-09-21T09:34:17;100179.81;;;21.04;100.00
8286;BME280;4181;43.416;24.598;2022-09-21T09:36:51;100186.47;;;21.03;100.00
8286;BME280;4181;43.416;24.598;2022-09-21T09:39:20;100184.06;;;20.88;100.00
8286;BME280;4181;43.416;24.598;2022-09-21T09:44:34;100199.31;;;20.69;100.00
8286;BME280;4181;43.416;24.598;2022-09-21T09:50:20;100197.41;;;20.34;100.00
8286;BME280;4181;43.416;24.598;2022-09-21T09:52:50;100213.88;;;20.17;100.00
8286;BME280;4181;43.416;24.598;2022-09-21T09:55:25;100200.09;;;20.25;100.00
8286;BME280;4181;43.416;24.598;2022-09-21T09:57:54;100181.53;;;20.26;100.00
8286;BME280;4181;43.416;24.598;2022-09-21T10:00:20;100189.03;;;20.25;100.00
8286;BME280;4181;43.416;24.598;2022-09-21T10:02:47;100202.25;;;20.14;100.00
8286;BME280;4181;43.416;24.598;2022-09-21T10:05:35;100190.16;;;20.24;100.00
8286;BME280;4181;43.416;24.598;2022-09-21T10:08:03;100189.88;;;20.12;100.00
8286;BME280;4181;43.416;24.598;2022-09-21T10:21:32;100173.81;;;20.36;100.00
8286;BME280;4181;43.416;24.598;2022-09-21T10:24:02;100146.75;;;20.94;100.00
8286;BME280;4181;43.416;24.598;2022-09-21T10:26:49;100132.91;;;21.42;100.00
8286;BME280;4181;43.416;24.598;2022-09-21T10:29:27;100124.38;;;21.86;100.00
8286;BME280;4181;43.416;24.598;2022-09-21T10:34:21;100122.06;;;22.39;100.00
8286;BME280;4181;43.416;24.598;2022-09-21T10:36:53;100112.38;;;22.45;100.00
8286;BME280;4181;43.416;24.598;2022-09-21T10:42:11;100118.47;;;22.05;100.00
8286;BME280;4181;43.416;24.598;2022-09-21T10:44:39;100130.13;;;21.42;100.00
8286;BME280;4181;43.416;24.598;2022-09-21T10:47:35;100135.31;;;21.26;100.00
8286;BME280;4181;43.416;24.598;2022-09-21T10:50:05;100136.63;;;21.20;100.00
8286;BME280;4181;43.416;24.598;2022-09-21T10:52:37;100131.56;;;21.22;100.00
8286;BME280;4181;43.416;24.598;2022-09-21T10:55:05;100127.75;;;21.10;100.00
8286;BME280;4181;43.416;24.598;2022-09-21T10:57:32;100126.19;;;20.95;100.00
8286;BME280;4181;43.416;24.598;2022-09-21T11:02:45;100132.47;;;21.01;100.00
8286;BME280;4181;43.416;24.598;2022-09-21T11:05:44;100127.09;;;21.04;100.00
8286;BME280;4181;43.416;24.598;2022-09-21T11:08:17;100117.19;;;20.90;100.00
8286;BME280;4181;43.416;24.598;2022-09-21T11:14:33;100125.09;;;20.66;100.00
8286;BME280;4181;43.416;24.598;2022-09-21T11:17:06;100122.63;;;20.64;100.00
8286;BME280;4181;43.416;24.598;2022-09-21T11:19:38;100122.44;;;20.61;100.00
8286;BME280;4181;43.416;24.598;2022-09-21T11:25:23;100123.34;;;20.26;100.00
8286;BME280;4181;43.416;24.598;2022-09-21T11:28:32;100126.84;;;20.31;100.00
8286;BME280;4181;43.416;24.598;2022-09-21T11:36:19;100122.53;;;20.25;100.00
8286;BME280;4181;43.416;24.598;2022-09-21T11:41:54;100106.66;;;20.39;100.00
8286;BME280;4181;43.416;24.598;2022-09-21T11:44:48;100113.13;;;20.35;100.00
8286;BME280;4181;43.416;24.598;2022-09-21T11:50:15;100117.63;;;20.22;100.00
8286;BME280;4181;43.416;24.598;2022-09-21T11:55:30;100104.41;;;20.41;100.00
8286;BME280;4181;43.416;24.598;2022-09-21T12:14:35;100094.44;;;20.71;100.00
8286;BME280;4181;43.416;24.598;2022-09-21T12:19:36;100114.59;;;20.32;100.00
8286;BME280;4181;43.416;24.598;2022-09-21T12:22:25;100116.16;;;20.25;100.00
8286;BME280;4181;43.416;24.598;2022-09-21T12:24:56;100107.38;;;20.23;100.00
8286;BME280;4181;43.416;24.598;2022-09-21T12:27:41;100104.94;;;20.07;100.00
8286;BME280;4181;43.416;24.598;2022-09-21T12:30:15;100110.53;;;19.94;100.00
8286;BME280;4181;43.416;24.598;2022-09-21T12:35:48;100100.25;;;19.94;100.00
8286;BME280;4181;43.416;24.598;2022-09-21T12:38:32;100108.03;;;19.70;100.00
8286;BME280;4181;43.416;24.598;2022-09-21T12:41:16;100111.13;;;19.69;100.00
8286;BME280;4181;43.416;24.598;2022-09-21T12:46:49;100120.72;;;19.09;100.00
8286;BME280;4181;43.416;24.598;2022-09-21T12:49:22;100123.47;;;19.09;100.00
8286;BME280;4181;43.416;24.598;2022-09-21T12:51:56;100112.72;;;18.93;100.00
8286;BME280;4181;43.416;24.598;2022-09-21T12:57:20;100140.81;;;18.36;100.00
8286;BME280;4181;43.416;24.598;2022-09-21T13:00:05;100155.16;;;17.69;100.00
8286;BME280;4181;43.416;24.598;2022-09-21T13:02:45;100164.50;;;17.26;100.00
8286;BME280;4181;43.416;24.598;2022-09-21T13:05:33;100155.59;;;16.87;100.00
8286;BME280;4181;43.416;24.598;2022-09-21T13:08:11;100157.44;;;16.68;100.00
8286;BME280;4181;43.416;24.598;2022-09-21T13:13:50;100151.19;;;15.90;100.00
8286;BME280;4181;43.416;24.598;2022-09-21T13:16:30;100144.41;;;15.72;100.00
8286;BME280;4181;43.416;24.598;2022-09-21T13:19:03;100139.84;;;15.58;100.00
8286;BME280;4181;43.416;24.598;2022-09-21T13:21:31;100134.88;;;15.60;100.00
8286;BME280;4181;43.416;24.598;2022-09-21T13:24:02;100142.66;;;15.38;100.00
8286;BME280;4181;43.416;24.598;2022-09-21T13:34:28;100106.50;;;15.10;100.00
8286;BME280;4181;43.416;24.598;2022-09-21T13:47:47;100168.84;;;15.84;100.00
8286;BME280;4181;43.416;24.598;2022-09-21T13:50:28;100171.75;;;15.97;100.00
8286;BME280;4181;43.416;24.598;2022-09-21T13:53:01;100163.41;;;16.12;100.00
8286;BME280;4181;43.416;24.598;2022-09-21T13:55:29;100182.84;;;16.26;100.00
8286;BME280;4181;43.416;24.598;2022-09-21T13:57:58;100192.47;;;16.28;100.00
8286;BME280;4181;43.416;24.598;2022-09-21T14:03:40;100244.53;;;16.25;100.00
8286;BME280;4181;43.416;24.598;2022-09-21T14:06:21;100234.16;;;16.12;100.00
8286;BME280;4181;43.416;24.598;2022-09-21T14:09:04;100233.97;;;15.98;100.00
8286;BME280;4181;43.416;24.598;2022-09-21T14:11:36;100196.03;;;15.95;100.00
8286;BME280;4181;43.416;24.598;2022-09-21T14:14:05;100176.31;;;15.78;100.00
8286;BME280;4181;43.416;24.598;2022-09-21T14:19:03;100174.91;;;15.27;100.00
8286;BME280;4181;43.416;24.598;2022-09-21T14:30:19;100182.19;;;14.28;100.00
8286;BME280;4181;43.416;24.598;2022-09-21T14:35:23;100094.38;;;14.08;100.00
8286;BME280;4181;43.416;24.598;2022-09-21T14:37:58;100054.03;;;14.08;100.00
8286;BME280;4181;43.416;24.598;2022-09-21T14:40:28;100028.25;;;14.14;100.00
8286;BME280;4181;43.416;24.598;2022-09-21T14:42:58;100001.63;;;14.15;100.00
8286;BME280;4181;43.416;24.598;2022-09-21T14:48:37;99967.91;;;14.04;100.00
8286;BME280;4181;43.416;24.598;2022-09-21T14:51:41;99976.97;;;13.94;100.00
8286;BME280;4181;43.416;24.598;2022-09-21T14:54:31;99992.31;;;14.06;100.00
8286;BME280;4181;43.416;24.598;2022-09-21T14:59:53;100018.09;;;14.15;100.00
8286;BME280;4181;43.416;24.598;2022-09-21T15:02:25;100034.84;;;14.08;100.00
8286;BME280;4181;43.416;24.598;2022-09-21T15:10:59;100057.25;;;14.65;100.00
8286;BME280;4181;43.416;24.598;2022-09-21T15:16:37;100050.75;;;15.05;100.00
8286;BME280;4181;43.416;24.598;2022-09-21T15:21:46;100080.66;;;15.16;100.00
8286;BME280;4181;43.416;24.598;2022-09-21T15:24:18;100094.03;;;15.33;100.00
8286;BME280;4181;43.416;24.598;2022-09-21T15:26:45;100085.50;;;15.40;100.00
8286;BME280;4181;43.416;24.598;2022-09-21T15:29:20;100087.06;;;15.51;100.00
8286;BME280;4181;43.416;24.598;2022-09-21T15:31:46;100106.47;;;15.69;100.00
8286;BME280;4181;43.416;24.598;2022-09-21T15:34:12;100114.44;;;15.71;100.00
8286;BME280;4181;43.416;24.598;2022-09-21T15:36:41;100113.91;;;15.74;100.00
8286;BME280;4181;43.416;24.598;2022-09-21T15:39:20;100117.41;;;15.79;100.00
8286;BME280;4181;43.416;24.598;2022-09-21T15:41:49;100128.75;;;15.73;100.00
8286;BME280;4181;43.416;24.598;2022-09-21T15:44:29;100122.16;;;15.74;100.00
8286;BME280;4181;43.416;24.598;2022-09-21T15:46:57;100119.41;;;15.74;100.00
8286;BME280;4181;43.416;24.598;2022-09-21T15:49:26;100124.13;;;15.63;100.00
8286;BME280;4181;43.416;24.598;2022-09-21T15:52:17;100127.69;;;15.69;100.00
8286;BME280;4181;43.416;24.598;2022-09-21T15:54:54;100127.97;;;15.62;100.00
8286;BME280;4181;43.416;24.598;2022-09-21T15:57:36;100136.38;;;15.37;100.00
8286;BME280;4181;43.416;24.598;2022-09-21T16:00:16;100112.69;;;15.46;100.00
8286;BME280;4181;43.416;24.598;2022-09-21T16:05:30;100118.75;;;15.43;100.00
8286;BME280;4181;43.416;24.598;2022-09-21T16:10:42;100094.25;;;15.47;100.00
8286;BME280;4181;43.416;24.598;2022-09-21T16:13:22;100082.44;;;15.46;100.00
8286;BME280;4181;43.416;24.598;2022-09-21T16:16:13;100088.50;;;15.43;100.00
8286;BME280;4181;43.416;24.598;2022-09-21T16:18:51;100094.03;;;15.33;100.00